^^
Grace C. Lehan Memorial Weather Station Historical Data
Daily Summary for January 27, 2021 Units:  Both    English   Metric
Daily Weekly Monthly Yearly
  High: Low: Average:
Temperature: 37.6 °F /  3.1 °C 29.3 °F /  -1.5 °C 32.1 °F /  0.1 °C
Dew Point: 32 °F /  0 °C 26 °F /  -3.3 °C 28.6 °F /  -1.9 °C
Humidity: 93% 79.6% 87%
Wind Speed: 6mph /  9.7km/h - 1.1mph /  1.8km/h
Wind Gust: 14mph /  22.5km/h - -
Wind- - NNW
Pressure: 30.08 in /  1018.5 hPa 29.84 in /  1010.4 hPa -
Precipitation: 0.12 in /  3.05 mm    
 
 
Tabular Data for January 27, 2021
Time Temperature Dew Point Pressure Wind Wind Speed Wind Gust Humidity Rainfall Rate (Hourly) solar
00:04 29.6 °F /  -1.3 °C 27.8 °F /  -2.3 °C 29.85in /  1010.7hPa NNW 0.6mph /  1km/h 4mph /  6.4km/h 93% 0.00in /  0mm 0 W/m2
00:09 29.6 °F /  -1.3 °C 27.6 °F /  -2.4 °C 29.85in /  1010.7hPa NNW 0.4mph /  0.6km/h 3mph /  4.8km/h 92% 0.00in /  0mm 0 W/m2
00:14 29.5 °F /  -1.4 °C 27.5 °F /  -2.5 °C 29.85in /  1010.7hPa NNW 0.9mph /  1.4km/h 4mph /  6.4km/h 92% 0.00in /  0mm 0 W/m2
00:19 29.4 °F /  -1.4 °C 27.4 °F /  -2.6 °C 29.85in /  1010.7hPa NNW 1.6mph /  2.6km/h 6mph /  9.7km/h 92% 0.00in /  0mm 0 W/m2
00:24 29.4 °F /  -1.4 °C 27.4 °F /  -2.6 °C 29.84in /  1010.4hPa NNW 0.7mph /  1.1km/h 6mph /  9.7km/h 92% 0.00in /  0mm 0 W/m2
00:29 29.4 °F /  -1.4 °C 27.3 °F /  -2.6 °C 29.84in /  1010.4hPa NNW 0.6mph /  1km/h 6mph /  9.7km/h 92% 0.00in /  0mm 0 W/m2
00:34 29.3 °F /  -1.5 °C 27.3 °F /  -2.6 °C 29.84in /  1010.4hPa NNW 0.1mph /  0.2km/h 6mph /  9.7km/h 92% 0.00in /  0mm 0 W/m2
00:39 29.3 °F /  -1.5 °C 27.3 °F /  -2.6 °C 29.84in /  1010.4hPa NNW 1.1mph /  1.8km/h 6mph /  9.7km/h 92% 0.00in /  0mm 0 W/m2
00:44 29.3 °F /  -1.5 °C 27.3 °F /  -2.6 °C 29.85in /  1010.7hPa NNW 0.1mph /  0.2km/h 6mph /  9.7km/h 92% 0.00in /  0mm 0 W/m2
00:49 29.3 °F /  -1.5 °C 27.3 °F /  -2.6 °C 29.85in /  1010.7hPa NNW 1.1mph /  1.8km/h 6mph /  9.7km/h 92% 0.00in /  0mm 0 W/m2
00:54 29.3 °F /  -1.5 °C 27.3 °F /  -2.6 °C 29.84in /  1010.4hPa NNW 0.6mph /  1km/h 6mph /  9.7km/h 92% 0.00in /  0mm 0 W/m2
00:59 29.3 °F /  -1.5 °C 27.3 °F /  -2.6 °C 29.85in /  1010.7hPa NNW 0.1mph /  0.2km/h 6mph /  9.7km/h 92% 0.00in /  0mm 0 W/m2
01:04 29.3 °F /  -1.5 °C 27.3 °F /  -2.6 °C 29.84in /  1010.4hPa NNW 1.2mph /  1.9km/h 6mph /  9.7km/h 92% 0.00in /  0mm 0 W/m2
01:09 29.3 °F /  -1.5 °C 27.3 °F /  -2.6 °C 29.85in /  1010.7hPa NNW 0.3mph /  0.5km/h 5mph /  8km/h 92% 0.00in /  0mm 0 W/m2
01:14 29.4 °F /  -1.4 °C 27.4 °F /  -2.6 °C 29.85in /  1010.7hPa NNW 0.7mph /  1.1km/h 5mph /  8km/h 92.1% 0.00in /  0mm 0 W/m2
01:19 29.4 °F /  -1.4 °C 27.6 °F /  -2.4 °C 29.85in /  1010.7hPa Calm   5mph /  8km/h 93% 0.00in /  0mm 0 W/m2
01:24 29.4 °F /  -1.4 °C 27.6 °F /  -2.4 °C 29.85in /  1010.7hPa NNW 0.1mph /  0.2km/h 5mph /  8km/h 93% 0.00in /  0mm 0 W/m2
01:29 29.4 °F /  -1.4 °C 27.6 °F /  -2.4 °C 29.85in /  1010.7hPa NNW 0.1mph /  0.2km/h 5mph /  8km/h 93% 0.00in /  0mm 0 W/m2
01:34 29.4 °F /  -1.4 °C 27.7 °F /  -2.4 °C 29.85in /  1010.7hPa Calm   5mph /  8km/h 93% 0.00in /  0mm 0 W/m2
01:39 29.5 °F /  -1.4 °C 27.7 °F /  -2.4 °C 29.86in /  1011.1hPa NNW 0.6mph /  1km/h 3mph /  4.8km/h 93% 0.00in /  0mm 0 W/m2
01:44 29.5 °F /  -1.4 °C 27.7 °F /  -2.4 °C 29.86in /  1011.1hPa NNW 0.4mph /  0.6km/h 3mph /  4.8km/h 93% 0.00in /  0mm 0 W/m2
01:49 29.5 °F /  -1.4 °C 27.7 °F /  -2.4 °C 29.86in /  1011.1hPa Calm   3mph /  4.8km/h 93% 0.00in /  0mm 0 W/m2
01:54 29.6 °F /  -1.3 °C 27.8 °F /  -2.3 °C 29.86in /  1011.1hPa Calm   3mph /  4.8km/h 93% 0.00in /  0mm 0 W/m2
01:59 29.6 °F /  -1.3 °C 27.8 °F /  -2.3 °C 29.86in /  1011.1hPa NNW 0.3mph /  0.5km/h 3mph /  4.8km/h 93% 0.00in /  0mm 0 W/m2
02:04 29.6 °F /  -1.3 °C 27.8 °F /  -2.3 °C 29.85in /  1010.7hPa Calm   3mph /  4.8km/h 93% 0.00in /  0mm 0 W/m2
02:09 29.6 °F /  -1.3 °C 27.8 °F /  -2.3 °C 29.86in /  1011.1hPa Calm     93% 0.00in /  0mm 0 W/m2
02:14 29.6 °F /  -1.3 °C 27.9 °F /  -2.3 °C 29.86in /  1011.1hPa Calm   2mph /  3.2km/h 93% 0.00in /  0mm 0 W/m2
02:19 29.6 °F /  -1.3 °C 27.8 °F /  -2.3 °C 29.86in /  1011.1hPa NNW 0.1mph /  0.2km/h 2mph /  3.2km/h 93% 0.00in /  0mm 0 W/m2
02:24 29.6 °F /  -1.3 °C 27.8 °F /  -2.3 °C 29.87in /  1011.4hPa Calm   2mph /  3.2km/h 93% 0.00in /  0mm 0 W/m2
02:29 29.6 °F /  -1.3 °C 27.8 °F /  -2.3 °C 29.87in /  1011.4hPa Calm   2mph /  3.2km/h 93% 0.00in /  0mm 0 W/m2
02:34 29.6 °F /  -1.3 °C 27.9 °F /  -2.3 °C 29.87in /  1011.4hPa NNW 0.1mph /  0.2km/h 2mph /  3.2km/h 93% 0.00in /  0mm 0 W/m2
02:39 29.6 °F /  -1.3 °C 27.8 °F /  -2.3 °C 29.87in /  1011.4hPa NNW 0.5mph /  0.8km/h 3mph /  4.8km/h 93% 0.00in /  0mm 0 W/m2
02:44 29.6 °F /  -1.3 °C 27.8 °F /  -2.3 °C 29.87in /  1011.4hPa Calm   3mph /  4.8km/h 93% 0.00in /  0mm 0 W/m2
02:49 29.6 °F /  -1.3 °C 27.8 °F /  -2.3 °C 29.86in /  1011.1hPa Calm   3mph /  4.8km/h 93% 0.00in /  0mm 0 W/m2
02:54 29.6 °F /  -1.3 °C 27.8 °F /  -2.3 °C 29.87in /  1011.4hPa Calm   3mph /  4.8km/h 93% 0.00in /  0mm 0 W/m2
02:59 29.6 °F /  -1.3 °C 27.8 °F /  -2.3 °C 29.87in /  1011.4hPa NNW 0.5mph /  0.8km/h 3mph /  4.8km/h 93% 0.00in /  0mm 0 W/m2
03:04 29.6 °F /  -1.3 °C 27.8 °F /  -2.3 °C 29.87in /  1011.4hPa Calm   3mph /  4.8km/h 93% 0.00in /  0mm 0 W/m2
03:09 29.6 °F /  -1.3 °C 27.8 °F /  -2.3 °C 29.87in /  1011.4hPa NNW 0.3mph /  0.5km/h 3mph /  4.8km/h 93% 0.00in /  0mm 0 W/m2
03:14 29.6 °F /  -1.3 °C 27.8 °F /  -2.3 °C 29.87in /  1011.4hPa Calm   3mph /  4.8km/h 93% 0.00in /  0mm 0 W/m2
03:19 29.7 °F /  -1.3 °C 27.9 °F /  -2.3 °C 29.87in /  1011.4hPa Calm   3mph /  4.8km/h 93% 0.00in /  0mm 0 W/m2
03:24 29.7 °F /  -1.3 °C 27.9 °F /  -2.3 °C 29.88in /  1011.7hPa Calm   3mph /  4.8km/h 93% 0.00in /  0mm 0 W/m2
03:29 29.7 °F /  -1.3 °C 27.9 °F /  -2.3 °C 29.88in /  1011.7hPa Calm   3mph /  4.8km/h 93% 0.00in /  0mm 0 W/m2
03:34 29.7 °F /  -1.3 °C 27.9 °F /  -2.3 °C 29.88in /  1011.7hPa NNW 0.3mph /  0.5km/h 3mph /  4.8km/h 93% 0.00in /  0mm 0 W/m2
03:39 29.7 °F /  -1.3 °C 27.9 °F /  -2.3 °C 29.88in /  1011.7hPa Calm   3mph /  4.8km/h 93% 0.00in /  0mm 0 W/m2
03:44 29.7 °F /  -1.3 °C 27.9 °F /  -2.3 °C 29.88in /  1011.7hPa Calm   3mph /  4.8km/h 93% 0.00in /  0mm 0 W/m2
03:49 29.7 °F /  -1.3 °C 27.9 °F /  -2.3 °C 29.88in /  1011.7hPa NNW 0.4mph /  0.6km/h 3mph /  4.8km/h 93% 0.00in /  0mm 0 W/m2
03:54 29.7 °F /  -1.3 °C 27.9 °F /  -2.3 °C 29.88in /  1011.7hPa NNW 0.7mph /  1.1km/h 5mph /  8km/h 93% 0.00in /  0mm 0 W/m2
03:59 29.7 °F /  -1.3 °C 27.9 °F /  -2.3 °C 29.88in /  1011.7hPa Calm   5mph /  8km/h 93% 0.00in /  0mm 0 W/m2
04:00 29.6 °F /  -1.3 °C 27.8 °F /  -2.3 °C 29.88in /  1011.7hPa Calm   5mph /  8km/h 93% 0.00in /  0mm 0 W/m2
04:09 29.7 °F /  -1.3 °C 27.9 °F /  -2.3 °C 29.88in /  1011.7hPa Calm   1mph /  1.6km/h 93% 0.00in /  0mm 0 W/m2
04:14 29.7 °F /  -1.3 °C 27.9 °F /  -2.3 °C 29.88in /  1011.7hPa Calm   1mph /  1.6km/h 93% 0.00in /  0mm 0 W/m2
04:19 29.7 °F /  -1.3 °C 27.9 °F /  -2.3 °C 29.89in /  1012.1hPa Calm   1mph /  1.6km/h 93% 0.00in /  0mm 0 W/m2
04:24 29.7 °F /  -1.3 °C 27.9 °F /  -2.3 °C 29.89in /  1012.1hPa NNW 0.2mph /  0.3km/h 3mph /  4.8km/h 93% 0.00in /  0mm 0 W/m2
04:29 29.7 °F /  -1.3 °C 27.9 °F /  -2.3 °C 29.89in /  1012.1hPa Calm   3mph /  4.8km/h 93% 0.00in /  0mm 0 W/m2
04:34 29.7 °F /  -1.3 °C 27.9 °F /  -2.3 °C 29.88in /  1011.7hPa Calm   3mph /  4.8km/h 93% 0.00in /  0mm 0 W/m2
04:39 29.7 °F /  -1.3 °C 27.9 °F /  -2.3 °C 29.89in /  1012.1hPa NNW 0.2mph /  0.3km/h 2mph /  3.2km/h 93% 0.00in /  0mm 0 W/m2
04:44 29.7 °F /  -1.3 °C 27.9 °F /  -2.3 °C 29.89in /  1012.1hPa NNW 0.1mph /  0.2km/h 2mph /  3.2km/h 93% 0.00in /  0mm 0 W/m2
04:49 29.7 °F /  -1.3 °C 27.9 °F /  -2.3 °C 29.89in /  1012.1hPa Calm   2mph /  3.2km/h 93% 0.00in /  0mm 0 W/m2
04:54 29.7 °F /  -1.3 °C 27.9 °F /  -2.3 °C 29.89in /  1012.1hPa Calm   2mph /  3.2km/h 93% 0.00in /  0mm 0 W/m2
04:59 29.7 °F /  -1.3 °C 27.9 °F /  -2.3 °C 29.89in /  1012.1hPa Calm   2mph /  3.2km/h 93% 0.00in /  0mm 0 W/m2
05:04 29.7 °F /  -1.3 °C 27.9 °F /  -2.3 °C 29.89in /  1012.1hPa NNW 0.3mph /  0.5km/h 3mph /  4.8km/h 93% 0.00in /  0mm 0 W/m2
05:09 29.7 °F /  -1.3 °C 27.9 °F /  -2.3 °C 29.89in /  1012.1hPa NNW 0.1mph /  0.2km/h 3mph /  4.8km/h 93% 0.00in /  0mm 0 W/m2
05:14 29.7 °F /  -1.3 °C 27.9 °F /  -2.3 °C 29.89in /  1012.1hPa NNW 0.3mph /  0.5km/h 4mph /  6.4km/h 93% 0.00in /  0mm 0 W/m2
05:19 29.7 °F /  -1.3 °C 27.9 °F /  -2.3 °C 29.89in /  1012.1hPa NNW 0.2mph /  0.3km/h 4mph /  6.4km/h 93% 0.00in /  0mm 0 W/m2
05:24 29.7 °F /  -1.3 °C 27.9 °F /  -2.3 °C 29.89in /  1012.1hPa Calm   4mph /  6.4km/h 93% 0.00in /  0mm 0 W/m2
05:29 29.7 °F /  -1.3 °C 28 °F /  -2.2 °C 29.89in /  1012.1hPa Calm   4mph /  6.4km/h 93% 0.00in /  0mm 0 W/m2
05:34 29.8 °F /  -1.2 °C 28 °F /  -2.2 °C 29.89in /  1012.1hPa NNW 0.1mph /  0.2km/h 4mph /  6.4km/h 93% 0.00in /  0mm 0 W/m2
05:39 29.8 °F /  -1.2 °C 28 °F /  -2.2 °C 29.89in /  1012.1hPa Calm   2mph /  3.2km/h 93% 0.00in /  0mm 0 W/m2
05:44 29.8 °F /  -1.2 °C 28 °F /  -2.2 °C 29.89in /  1012.1hPa Calm   2mph /  3.2km/h 93% 0.00in /  0mm 0 W/m2
05:49 29.8 °F /  -1.2 °C 28 °F /  -2.2 °C 29.89in /  1012.1hPa Calm   2mph /  3.2km/h 93% 0.00in /  0mm 0 W/m2
05:54 29.8 °F /  -1.2 °C 28 °F /  -2.2 °C 29.89in /  1012.1hPa Calm   2mph /  3.2km/h 93% 0.00in /  0mm 0 W/m2
05:59 29.8 °F /  -1.2 °C 28 °F /  -2.2 °C 29.90in /  1012.4hPa Calm   2mph /  3.2km/h 93% 0.00in /  0mm 0 W/m2
06:04 29.8 °F /  -1.2 °C 28 °F /  -2.2 °C 29.90in /  1012.4hPa Calm   2mph /  3.2km/h 93% 0.00in /  0mm 0 W/m2
06:09 29.8 °F /  -1.2 °C 28 °F /  -2.2 °C 29.90in /  1012.4hPa Calm     93% 0.00in /  0mm 0 W/m2
06:14 29.8 °F /  -1.2 °C 28 °F /  -2.2 °C 29.91in /  1012.8hPa Calm     93% 0.00in /  0mm 0 W/m2
06:19 29.8 °F /  -1.2 °C 28 °F /  -2.2 °C 29.91in /  1012.8hPa NNW 0.1mph /  0.2km/h 2mph /  3.2km/h 93% 0.00in /  0mm 0 W/m2
06:24 29.8 °F /  -1.2 °C 28 °F /  -2.2 °C 29.91in /  1012.8hPa Calm   2mph /  3.2km/h 93% 0.00in /  0mm 0 W/m2
06:29 29.8 °F /  -1.2 °C 28 °F /  -2.2 °C 29.92in /  1013.1hPa NNW 0.3mph /  0.5km/h 3mph /  4.8km/h 93% 0.00in /  0mm 0 W/m2
06:34 29.8 °F /  -1.2 °C 28 °F /  -2.2 °C 29.92in /  1013.1hPa NNW 0.3mph /  0.5km/h 3mph /  4.8km/h 93% 0.00in /  0mm 0 W/m2
06:39 29.8 °F /  -1.2 °C 28 °F /  -2.2 °C 29.92in /  1013.1hPa NNW 0.1mph /  0.2km/h 3mph /  4.8km/h 93% 0.00in /  0mm 0 W/m2
06:44 29.8 °F /  -1.2 °C 28 °F /  -2.2 °C 29.92in /  1013.1hPa NNW 0.6mph /  1km/h 3mph /  4.8km/h 93% 0.00in /  0mm 0 W/m2
06:49 29.8 °F /  -1.2 °C 28 °F /  -2.2 °C 29.92in /  1013.1hPa Calm   3mph /  4.8km/h 93% 0.00in /  0mm 0 W/m2
06:54 29.8 °F /  -1.2 °C 28 °F /  -2.2 °C 29.92in /  1013.1hPa Calm   3mph /  4.8km/h 93% 0.00in /  0mm 0 W/m2
06:59 30 °F /  -1.1 °C 28.2 °F /  -2.1 °C 29.92in /  1013.1hPa Calm   3mph /  4.8km/h 93% 0.00in /  0mm 0 W/m2
07:04 30.1 °F /  -1.1 °C 28.4 °F /  -2 °C 29.92in /  1013.1hPa NNW 0.2mph /  0.3km/h 3mph /  4.8km/h 93% 0.00in /  0mm 0 W/m2
07:09 30.2 °F /  -1 °C 28.4 °F /  -2 °C 29.92in /  1013.1hPa NNW 0.4mph /  0.6km/h 3mph /  4.8km/h 93% 0.00in /  0mm 0 W/m2
07:14 30.3 °F /  -0.9 °C 28.5 °F /  -1.9 °C 29.92in /  1013.1hPa Calm   3mph /  4.8km/h 93% 0.00in /  0mm 0 W/m2
07:19 30.4 °F /  -0.9 °C 28.6 °F /  -1.9 °C 29.93in /  1013.4hPa NNW 0.6mph /  1km/h 4mph /  6.4km/h 93% 0.00in /  0mm 0 W/m2
07:24 30.4 °F /  -0.9 °C 28.6 °F /  -1.9 °C 29.93in /  1013.4hPa NNW 0.1mph /  0.2km/h 4mph /  6.4km/h 93% 0.00in /  0mm 0 W/m2
07:29 30.3 °F /  -0.9 °C 28.5 °F /  -1.9 °C 29.93in /  1013.4hPa Calm   4mph /  6.4km/h 93% 0.00in /  0mm 0 W/m2
07:34 30.3 °F /  -0.9 °C 28.5 °F /  -1.9 °C 29.93in /  1013.4hPa NNW 0.3mph /  0.5km/h 4mph /  6.4km/h 93% 0.00in /  0mm 0 W/m2
07:39 30.3 °F /  -0.9 °C 28.5 °F /  -1.9 °C 29.93in /  1013.4hPa Calm   3mph /  4.8km/h 93% 0.00in /  0mm 0 W/m2
07:44 30.4 °F /  -0.9 °C 28.6 °F /  -1.9 °C 29.94in /  1013.8hPa Calm   3mph /  4.8km/h 93% 0.00in /  0mm 0 W/m2
07:49 30.5 °F /  -0.8 °C 28.7 °F /  -1.8 °C 29.94in /  1013.8hPa Calm   3mph /  4.8km/h 93% 0.00in /  0mm 5 W/m2
07:54 30.5 °F /  -0.8 °C 28.7 °F /  -1.8 °C 29.94in /  1013.8hPa NNW 0.4mph /  0.6km/h 4mph /  6.4km/h 93% 0.00in /  0mm 5 W/m2
07:59 30.5 °F /  -0.8 °C 28.7 °F /  -1.8 °C 29.95in /  1014.1hPa NNW 0.5mph /  0.8km/h 4mph /  6.4km/h 93% 0.00in /  0mm 7 W/m2
08:04 30.6 °F /  -0.8 °C 28.8 °F /  -1.8 °C 29.95in /  1014.1hPa Calm     93% 0.00in /  0mm 7 W/m2
08:09 30.6 °F /  -0.8 °C 28.8 °F /  -1.8 °C 29.95in /  1014.1hPa NNW 0.1mph /  0.2km/h 2mph /  3.2km/h 93% 0.00in /  0mm 9 W/m2
08:14 30.7 °F /  -0.7 °C 28.9 °F /  -1.7 °C 29.95in /  1014.1hPa NNW 0.7mph /  1.1km/h 3mph /  4.8km/h 93% 0.00in /  0mm 9 W/m2
08:19 30.7 °F /  -0.7 °C 28.9 °F /  -1.7 °C 29.95in /  1014.1hPa NNW 1.1mph /  1.8km/h 5mph /  8km/h 93% 0.00in /  0mm 9 W/m2
08:24 30.7 °F /  -0.7 °C 28.9 °F /  -1.7 °C 29.95in /  1014.1hPa NNW 0.2mph /  0.3km/h 5mph /  8km/h 93% 0.00in /  0mm 11 W/m2
08:29 30.7 °F /  -0.7 °C 28.8 °F /  -1.8 °C 29.95in /  1014.1hPa Calm   5mph /  8km/h 92.7% 0.00in /  0mm 11 W/m2
08:34 30.8 °F /  -0.7 °C 29 °F /  -1.7 °C 29.95in /  1014.1hPa NNW 0.4mph /  0.6km/h 5mph /  8km/h 93% 0.00in /  0mm 12 W/m2
08:39 30.8 °F /  -0.7 °C 29 °F /  -1.7 °C 29.96in /  1014.4hPa NNW 1.4mph /  2.3km/h 5mph /  8km/h 93% 0.00in /  0mm 14 W/m2
08:44 30.9 °F /  -0.6 °C 29 °F /  -1.7 °C 29.96in /  1014.4hPa North 0.3mph /  0.5km/h 5mph /  8km/h 92.4% 0.00in /  0mm 16 W/m2
08:49 31.1 °F /  -0.5 °C 29 °F /  -1.7 °C 29.96in /  1014.4hPa North 0.9mph /  1.4km/h 5mph /  8km/h 92% 0.00in /  0mm 19 W/m2
08:54 31.2 °F /  -0.4 °C 29.3 °F /  -1.5 °C 29.97in /  1014.8hPa Calm   5mph /  8km/h 92.3% 0.00in /  0mm 21 W/m2
08:59 31.4 °F /  -0.3 °C 29.3 °F /  -1.5 °C 29.97in /  1014.8hPa NNW 0.7mph /  1.1km/h 5mph /  8km/h 92% 0.00in /  0mm 21 W/m2
09:04 31.5 °F /  -0.3 °C 29.4 °F /  -1.4 °C 29.97in /  1014.8hPa NNW 1.2mph /  1.9km/h 5mph /  8km/h 92% 0.00in /  0mm 23 W/m2
09:09 31.6 °F /  -0.2 °C 29.5 °F /  -1.4 °C 29.97in /  1014.8hPa NNW 0.3mph /  0.5km/h 5mph /  8km/h 92% 0.00in /  0mm 25 W/m2
09:14 31.7 °F /  -0.2 °C 29.7 °F /  -1.3 °C 29.97in /  1014.8hPa Calm   5mph /  8km/h 92% 0.00in /  0mm 28 W/m2
09:19 31.9 °F /  -0.1 °C 29.7 °F /  -1.3 °C 29.97in /  1014.8hPa NNW 0.8mph /  1.3km/h 5mph /  8km/h 91.5% 0.00in /  0mm 28 W/m2
09:24 32 °F /  0 °C 29.7 °F /  -1.3 °C 29.97in /  1014.8hPa NNW 0.2mph /  0.3km/h 5mph /  8km/h 91% 0.00in /  0mm 28 W/m2
09:29 32.2 °F /  0.1 °C 29.8 °F /  -1.2 °C 29.97in /  1014.8hPa NNW 0.8mph /  1.3km/h 5mph /  8km/h 91% 0.00in /  0mm 32 W/m2
09:34 32.3 °F /  0.2 °C 30 °F /  -1.1 °C 29.97in /  1014.8hPa NNW 0.6mph /  1km/h 5mph /  8km/h 91% 0.00in /  0mm 30 W/m2
09:39 32.5 °F /  0.3 °C 30.1 °F /  -1.1 °C 29.98in /  1015.1hPa NNW 0.1mph /  0.2km/h 3mph /  4.8km/h 90.9% 0.00in /  0mm 33 W/m2
09:44 32.7 °F /  0.4 °C 30.3 °F /  -0.9 °C 29.98in /  1015.1hPa NNW 0.9mph /  1.4km/h 5mph /  8km/h 90.7% 0.00in /  0mm 33 W/m2
09:49 32.9 °F /  0.5 °C 30.3 °F /  -0.9 °C 29.98in /  1015.1hPa NNW 0.9mph /  1.4km/h 5mph /  8km/h 90% 0.00in /  0mm 33 W/m2
09:54 33 °F /  0.6 °C 30.3 °F /  -0.9 °C 29.99in /  1015.5hPa NNW 1.8mph /  2.9km/h 7mph /  11.3km/h 89.6% 0.00in /  0mm 26 W/m2
09:59 33 °F /  0.6 °C 30.1 °F /  -1.1 °C 29.99in /  1015.5hPa NNW 1.5mph /  2.4km/h 7mph /  11.3km/h 89% 0.00in /  0mm 23 W/m2
10:04 33 °F /  0.6 °C 30.1 °F /  -1.1 °C 29.99in /  1015.5hPa NNW 1.7mph /  2.7km/h 7mph /  11.3km/h 89% 0.00in /  0mm 23 W/m2
10:09 32.9 °F /  0.5 °C 29.8 °F /  -1.2 °C 30.00in /  1015.8hPa NNW 2.1mph /  3.4km/h 6mph /  9.7km/h 88.3% 0.00in /  0mm 23 W/m2
10:14 32.9 °F /  0.5 °C 29.7 °F /  -1.3 °C 30.00in /  1015.8hPa NNW 2.6mph /  4.2km/h 6mph /  9.7km/h 88% 0.00in /  0mm 21 W/m2
10:19 32.9 °F /  0.5 °C 29.7 °F /  -1.3 °C 30.00in /  1015.8hPa North 1.1mph /  1.8km/h 6mph /  9.7km/h 88% 0.00in /  0mm 21 W/m2
10:24 33 °F /  0.6 °C 29.8 °F /  -1.2 °C 30.00in /  1015.8hPa NNW 1.4mph /  2.3km/h 6mph /  9.7km/h 88% 0.00in /  0mm 21 W/m2
10:29 33 °F /  0.6 °C 29.8 °F /  -1.2 °C 30.00in /  1015.8hPa NNW 2.9mph /  4.7km/h 7mph /  11.3km/h 88% 0.00in /  0mm 23 W/m2
10:34 33 °F /  0.6 °C 29.8 °F /  -1.2 °C 30.00in /  1015.8hPa NW 0.7mph /  1.1km/h 7mph /  11.3km/h 88% 0.00in /  0mm 21 W/m2
10:39 33.1 °F /  0.6 °C 30 °F /  -1.1 °C 30.00in /  1015.8hPa NNW 2mph /  3.2km/h 6mph /  9.7km/h 88% 0.00in /  0mm 21 W/m2
10:44 33.3 °F /  0.7 °C 30.1 °F /  -1.1 °C 30.00in /  1015.8hPa NNW 1.1mph /  1.8km/h 6mph /  9.7km/h 88% 0.00in /  0mm 23 W/m2
10:49 33.3 °F /  0.7 °C 30.2 °F /  -1 °C 30.00in /  1015.8hPa NNW 0.5mph /  0.8km/h 6mph /  9.7km/h 88% 0.00in /  0mm 26 W/m2
10:54 33.5 °F /  0.8 °C 30.3 °F /  -0.9 °C 30.00in /  1015.8hPa NNW 0.5mph /  0.8km/h 6mph /  9.7km/h 88% 0.00in /  0mm 32 W/m2
10:59 33.5 °F /  0.8 °C 30.1 °F /  -1.1 °C 30.00in /  1015.8hPa North 0.8mph /  1.3km/h 6mph /  9.7km/h 87% 0.00in /  0mm 32 W/m2
11:04 33.7 °F /  0.9 °C 30.2 °F /  -1 °C 29.99in /  1015.5hPa NNW 1.1mph /  1.8km/h 6mph /  9.7km/h 87% 0.00in /  0mm 30 W/m2
11:09 33.8 °F /  1 °C 30.4 °F /  -0.9 °C 29.99in /  1015.5hPa NNW 2.7mph /  4.3km/h 7mph /  11.3km/h 87% 0.00in /  0mm 28 W/m2
11:14 34 °F /  1.1 °C 30.3 °F /  -0.9 °C 30.00in /  1015.8hPa NNW 1.9mph /  3.1km/h 7mph /  11.3km/h 86.2% 0.00in /  0mm 28 W/m2
11:19 34 °F /  1.1 °C 30.3 °F /  -0.9 °C 29.99in /  1015.5hPa NNW 0.9mph /  1.4km/h 7mph /  11.3km/h 86% 0.01in /  0.25mm 28 W/m2
11:24 34 °F /  1.1 °C 30.2 °F /  -1 °C 29.99in /  1015.5hPa NNW 1mph /  1.6km/h 7mph /  11.3km/h 85.9% 0.01in /  0.25mm 30 W/m2
11:29 34.1 °F /  1.2 °C 30.4 °F /  -0.9 °C 29.99in /  1015.5hPa NNW 0.5mph /  0.8km/h 7mph /  11.3km/h 86% 0.01in /  0.25mm 30 W/m2
11:34 34.2 °F /  1.2 °C 30.5 °F /  -0.8 °C 29.99in /  1015.5hPa NNW 0.9mph /  1.4km/h 7mph /  11.3km/h 86% 0.01in /  0.25mm 33 W/m2
11:39 34.3 °F /  1.3 °C 30.4 °F /  -0.9 °C 29.99in /  1015.5hPa NNW 2.1mph /  3.4km/h 5mph /  8km/h 85.4% 0.01in /  0.25mm 33 W/m2
11:44 34.3 °F /  1.3 °C 30.3 °F /  -0.9 °C 29.99in /  1015.5hPa NNW 2.1mph /  3.4km/h 6mph /  9.7km/h 85% 0.01in /  0.25mm 32 W/m2
11:49 34.3 °F /  1.3 °C 30.3 °F /  -0.9 °C 29.99in /  1015.5hPa NW 1.2mph /  1.9km/h 7mph /  11.3km/h 85% 0.01in /  0.25mm 32 W/m2
11:54 34.3 °F /  1.3 °C 30.4 °F /  -0.9 °C 29.99in /  1015.5hPa NNW 2mph /  3.2km/h 9mph /  14.5km/h 85.4% 0.02in /  0.51mm 35 W/m2
11:59 34.4 °F /  1.3 °C 30.4 °F /  -0.9 °C 29.99in /  1015.5hPa NNW 2.2mph /  3.5km/h 9mph /  14.5km/h 85% 0.02in /  0.51mm 42 W/m2
12:00 34.4 °F /  1.3 °C 30.4 °F /  -0.9 °C 29.98in /  1015.1hPa NNW 3mph /  4.8km/h 9mph /  14.5km/h 85% 0.02in /  0.51mm 42 W/m2
12:09 34.6 °F /  1.4 °C 30.3 °F /  -0.9 °C 29.98in /  1015.1hPa NW 2.3mph /  3.7km/h 6mph /  9.7km/h 84.1% 0.02in /  0.51mm 47 W/m2
12:14 34.8 °F /  1.6 °C 30.7 °F /  -0.7 °C 29.99in /  1015.5hPa NW 0.7mph /  1.1km/h 6mph /  9.7km/h 84.7% 0.02in /  0.51mm 44 W/m2
12:19 35.1 °F /  1.7 °C 30.9 °F /  -0.6 °C 29.98in /  1015.1hPa NNW 0.7mph /  1.1km/h 6mph /  9.7km/h 84.6% 0.03in /  0.76mm 44 W/m2
12:24 35.4 °F /  1.9 °C 31 °F /  -0.6 °C 29.98in /  1015.1hPa NNW 1.4mph /  2.3km/h 6mph /  9.7km/h 84% 0.03in /  0.76mm 47 W/m2
12:29 35.6 °F /  2 °C 31.3 °F /  -0.4 °C 29.98in /  1015.1hPa NNW 0.8mph /  1.3km/h 6mph /  9.7km/h 84% 0.03in /  0.76mm 54 W/m2
12:34 35.9 °F /  2.2 °C 31.3 °F /  -0.4 °C 29.98in /  1015.1hPa NNW 1.4mph /  2.3km/h 6mph /  9.7km/h 83.4% 0.03in /  0.76mm 58 W/m2
12:39 36.1 °F /  2.3 °C 31.4 °F /  -0.3 °C 29.98in /  1015.1hPa North 0.5mph /  0.8km/h 6mph /  9.7km/h 82.8% 0.02in /  0.51mm 60 W/m2
12:44 36.3 °F /  2.4 °C 31.3 °F /  -0.4 °C 29.97in /  1014.8hPa NNW 3.5mph /  5.6km/h 10mph /  16.1km/h 82% 0.03in /  0.76mm 63 W/m2
12:49 36.3 °F /  2.4 °C 31.1 °F /  -0.5 °C 29.97in /  1014.8hPa NNW 1.7mph /  2.7km/h 10mph /  16.1km/h 81% 0.03in /  0.76mm 69 W/m2
12:54 36.5 °F /  2.5 °C 31.2 °F /  -0.4 °C 29.97in /  1014.8hPa NNW 1.2mph /  1.9km/h 10mph /  16.1km/h 81% 0.03in /  0.76mm 69 W/m2
12:59 36.7 °F /  2.6 °C 31.6 °F /  -0.2 °C 29.97in /  1014.8hPa NNW 4.1mph /  6.6km/h 10mph /  16.1km/h 81.7% 0.03in /  0.76mm 74 W/m2
13:04 36.8 °F /  2.7 °C 31.5 °F /  -0.3 °C 29.97in /  1014.8hPa NNW 3.7mph /  6km/h 10mph /  16.1km/h 80.8% 0.03in /  0.76mm 84 W/m2
13:09 36.9 °F /  2.7 °C 31.6 °F /  -0.2 °C 29.97in /  1014.8hPa NNW 1.8mph /  2.9km/h 10mph /  16.1km/h 81% 0.02in /  0.51mm 90 W/m2
13:14 37.1 °F /  2.8 °C 31.8 °F /  -0.1 °C 29.97in /  1014.8hPa NNW 1mph /  1.6km/h 10mph /  16.1km/h 81% 0.02in /  0.51mm 90 W/m2
13:19 37.3 °F /  2.9 °C 32 °F /  0 °C 29.97in /  1014.8hPa NNW 2.1mph /  3.4km/h 10mph /  16.1km/h 81% 0.02in /  0.51mm 81 W/m2
13:24 37.5 °F /  3.1 °C 32 °F /  0 °C 29.97in /  1014.8hPa North 1.2mph /  1.9km/h 10mph /  16.1km/h 80.4% 0.03in /  0.76mm 93 W/m2
13:29 37.6 °F /  3.1 °C 32 °F /  0 °C 29.97in /  1014.8hPa NNW 2.3mph /  3.7km/h 10mph /  16.1km/h 80% 0.03in /  0.76mm 93 W/m2
13:34 37.5 °F /  3.1 °C 31.9 °F /  -0.1 °C 29.97in /  1014.8hPa NNW 1.7mph /  2.7km/h 10mph /  16.1km/h 80% 0.03in /  0.76mm 98 W/m2
13:39 37.4 °F /  3 °C 31.8 °F /  -0.1 °C 29.97in /  1014.8hPa NNW 4.3mph /  6.9km/h 10mph /  16.1km/h 80% 0.04in /  1.02mm 113 W/m2
13:44 37.2 °F /  2.9 °C 31.5 °F /  -0.3 °C 29.98in /  1015.1hPa NNW 2.2mph /  3.5km/h 10mph /  16.1km/h 79.6% 0.04in /  1.02mm 113 W/m2
13:49 37.1 °F /  2.8 °C 31.7 °F /  -0.2 °C 29.98in /  1015.1hPa NW 1.5mph /  2.4km/h 10mph /  16.1km/h 80.5% 0.04in /  1.02mm 98 W/m2
13:54 37 °F /  2.8 °C 31.5 °F /  -0.3 °C 29.98in /  1015.1hPa NW 5mph /  8km/h 14mph /  22.5km/h 80.2% 0.05in /  1.27mm 74 W/m2
13:59 36.6 °F /  2.6 °C 31 °F /  -0.6 °C 29.98in /  1015.1hPa NW 3.9mph /  6.3km/h 14mph /  22.5km/h 80% 0.05in /  1.27mm 56 W/m2
14:04 36.2 °F /  2.3 °C 30.7 °F /  -0.7 °C 29.99in /  1015.5hPa NW 2.2mph /  3.5km/h 14mph /  22.5km/h 80.2% 0.05in /  1.27mm 51 W/m2
14:09 36 °F /  2.2 °C 30.7 °F /  -0.7 °C 29.99in /  1015.5hPa WNW 2.4mph /  3.9km/h 10mph /  16.1km/h 81% 0.04in /  1.02mm 46 W/m2
14:14 35.8 °F /  2.1 °C 30.6 °F /  -0.8 °C 29.99in /  1015.5hPa NNW 2.5mph /  4km/h 10mph /  16.1km/h 81.3% 0.05in /  1.27mm 44 W/m2
14:19 35.6 °F /  2 °C 30.7 °F /  -0.7 °C 29.99in /  1015.5hPa NW 2.5mph /  4km/h 10mph /  16.1km/h 82% 0.05in /  1.27mm 46 W/m2
14:24 35.5 °F /  1.9 °C 30.6 °F /  -0.8 °C 29.99in /  1015.5hPa NW 2.8mph /  4.5km/h 10mph /  16.1km/h 82% 0.05in /  1.27mm 46 W/m2
14:29 35.5 °F /  1.9 °C 30.6 °F /  -0.8 °C 29.99in /  1015.5hPa NW 3.9mph /  6.3km/h 13mph /  20.9km/h 82% 0.05in /  1.27mm 47 W/m2
14:34 35.4 °F /  1.9 °C 30.5 °F /  -0.8 °C 30.00in /  1015.8hPa NW 4.8mph /  7.7km/h 13mph /  20.9km/h 82% 0.05in /  1.27mm 47 W/m2
14:39 35.3 °F /  1.8 °C 30.4 °F /  -0.9 °C 30.00in /  1015.8hPa NW 3.4mph /  5.5km/h 12mph /  19.3km/h 82% 0.03in /  0.76mm 46 W/m2
14:44 35.2 °F /  1.8 °C 30.3 °F /  -0.9 °C 30.00in /  1015.8hPa NW 2.4mph /  3.9km/h 12mph /  19.3km/h 82% 0.04in /  1.02mm 42 W/m2
14:49 35.1 °F /  1.7 °C 30.1 °F /  -1.1 °C 30.00in /  1015.8hPa NW 1.6mph /  2.6km/h 12mph /  19.3km/h 81.8% 0.04in /  1.02mm 42 W/m2
14:54 35.1 °F /  1.7 °C 30.1 °F /  -1.1 °C 30.00in /  1015.8hPa NW 2.7mph /  4.3km/h 12mph /  19.3km/h 82% 0.04in /  1.02mm 44 W/m2
14:59 35 °F /  1.7 °C 30 °F /  -1.1 °C 30.00in /  1015.8hPa NW 3.3mph /  5.3km/h 12mph /  19.3km/h 81.7% 0.04in /  1.02mm 44 W/m2
15:04 35 °F /  1.7 °C 30 °F /  -1.1 °C 30.01in /  1016.1hPa NW 3mph /  4.8km/h 12mph /  19.3km/h 81.8% 0.04in /  1.02mm 44 W/m2
15:09 35 °F /  1.7 °C 29.8 °F /  -1.2 °C 30.01in /  1016.1hPa WNW 2.2mph /  3.5km/h 11mph /  17.7km/h 81% 0.02in /  0.51mm 46 W/m2
15:14 35 °F /  1.7 °C 29.7 °F /  -1.3 °C 30.01in /  1016.1hPa WNW 0.8mph /  1.3km/h 11mph /  17.7km/h 81% 0.02in /  0.51mm 53 W/m2
15:19 35 °F /  1.7 °C 30.1 °F /  -1.1 °C 30.01in /  1016.1hPa NNW 0.7mph /  1.1km/h 11mph /  17.7km/h 82% 0.02in /  0.51mm 56 W/m2
15:24 35 °F /  1.7 °C 30.1 °F /  -1.1 °C 30.01in /  1016.1hPa NNW 1.2mph /  1.9km/h 11mph /  17.7km/h 82.2% 0.02in /  0.51mm 51 W/m2
15:29 35.1 °F /  1.7 °C 30.2 °F /  -1 °C 30.01in /  1016.1hPa NNW 0.7mph /  1.1km/h 11mph /  17.7km/h 82.2% 0.03in /  0.76mm 49 W/m2
15:34 35.1 °F /  1.7 °C 30.2 °F /  -1 °C 30.01in /  1016.1hPa NNW 1.9mph /  3.1km/h 11mph /  17.7km/h 82% 0.03in /  0.76mm 54 W/m2
15:39 35.2 °F /  1.8 °C 30 °F /  -1.1 °C 30.01in /  1016.1hPa NNW 1.3mph /  2.1km/h 6mph /  9.7km/h 81.3% 0.02in /  0.51mm 54 W/m2
15:44 35.2 °F /  1.8 °C 30 °F /  -1.1 °C 30.01in /  1016.1hPa NNW 2.1mph /  3.4km/h 10mph /  16.1km/h 81% 0.02in /  0.51mm 53 W/m2
15:49 35.2 °F /  1.8 °C 29.9 °F /  -1.2 °C 30.01in /  1016.1hPa NNW 1.2mph /  1.9km/h 10mph /  16.1km/h 81% 0.02in /  0.51mm 53 W/m2
15:54 35.2 °F /  1.8 °C 30 °F /  -1.1 °C 30.01in /  1016.1hPa NW 1.2mph /  1.9km/h 10mph /  16.1km/h 81% 0.02in /  0.51mm 54 W/m2
15:59 35.1 °F /  1.7 °C 29.9 °F /  -1.2 °C 30.01in /  1016.1hPa NW 2.2mph /  3.5km/h 10mph /  16.1km/h 81% 0.02in /  0.51mm 47 W/m2
16:00 35.1 °F /  1.7 °C 29.9 °F /  -1.2 °C 30.01in /  1016.1hPa NW 6mph /  9.7km/h 10mph /  16.1km/h 81% 0.02in /  0.51mm 39 W/m2
16:09 35 °F /  1.7 °C 29.8 °F /  -1.2 °C 30.01in /  1016.1hPa NNW 1.4mph /  2.3km/h 6mph /  9.7km/h 81% 0.01in /  0.25mm 39 W/m2
16:14 35.1 °F /  1.7 °C 29.8 °F /  -1.2 °C 30.01in /  1016.1hPa NW 2.6mph /  4.2km/h 7mph /  11.3km/h 81% 0.01in /  0.25mm 33 W/m2
16:19 35 °F /  1.7 °C 29.7 °F /  -1.3 °C 30.02in /  1016.5hPa NNW 2.7mph /  4.3km/h 7mph /  11.3km/h 80.6% 0.01in /  0.25mm 30 W/m2
16:24 34.9 °F /  1.6 °C 29.7 °F /  -1.3 °C 30.02in /  1016.5hPa NW 3mph /  4.8km/h 10mph /  16.1km/h 81% 0.01in /  0.25mm 25 W/m2
16:29 34.8 °F /  1.6 °C 29.5 °F /  -1.4 °C 30.02in /  1016.5hPa NNW 2.6mph /  4.2km/h 10mph /  16.1km/h 80.7% 0.01in /  0.25mm 21 W/m2
16:34 34.7 °F /  1.5 °C 29.4 °F /  -1.4 °C 30.02in /  1016.5hPa NW 2.5mph /  4km/h 10mph /  16.1km/h 80.7% 0.01in /  0.25mm 16 W/m2
16:39 34.6 °F /  1.4 °C 29.4 °F /  -1.4 °C 30.02in /  1016.5hPa NW 1.1mph /  1.8km/h 7mph /  11.3km/h 81% 0.01in /  0.25mm 14 W/m2
16:44 34.5 °F /  1.4 °C 29.3 °F /  -1.5 °C 30.03in /  1016.8hPa NW 2.8mph /  4.5km/h 7mph /  11.3km/h 81% 0.01in /  0.25mm 11 W/m2
16:49 34.4 °F /  1.3 °C 29.2 °F /  -1.6 °C 30.03in /  1016.8hPa NW 1.1mph /  1.8km/h 10mph /  16.1km/h 81% 0.01in /  0.25mm 9 W/m2
16:54 34.3 °F /  1.3 °C 29.1 °F /  -1.6 °C 30.03in /  1016.8hPa NW 1.9mph /  3.1km/h 10mph /  16.1km/h 81% 0.01in /  0.25mm 7 W/m2
16:59 34.3 °F /  1.3 °C 29.1 °F /  -1.6 °C 30.03in /  1016.8hPa NW 2.5mph /  4km/h 10mph /  16.1km/h 81% 0.01in /  0.25mm 0 W/m2
17:04 34.2 °F /  1.2 °C 29 °F /  -1.7 °C 30.03in /  1016.8hPa NW 3.4mph /  5.5km/h 11mph /  17.7km/h 81% 0.01in /  0.25mm 0 W/m2
17:09 34.1 °F /  1.2 °C 28.9 °F /  -1.7 °C 30.03in /  1016.8hPa NW 2.5mph /  4km/h 11mph /  17.7km/h 81% 0.01in /  0.25mm 0 W/m2
17:14 34 °F /  1.1 °C 28.8 °F /  -1.8 °C 30.03in /  1016.8hPa NNW 2.2mph /  3.5km/h 11mph /  17.7km/h 81% 0.01in /  0.25mm 0 W/m2
17:19 33.9 °F /  1.1 °C 28.9 °F /  -1.7 °C 30.03in /  1016.8hPa NNW 1.1mph /  1.8km/h 11mph /  17.7km/h 81.6% 0.01in /  0.25mm 0 W/m2
17:24 33.9 °F /  1.1 °C 29 °F /  -1.7 °C 30.03in /  1016.8hPa NNW 1.3mph /  2.1km/h 11mph /  17.7km/h 82% 0.01in /  0.25mm 0 W/m2
17:29 33.8 °F /  1 °C 28.9 °F /  -1.7 °C 30.03in /  1016.8hPa NNW 1.3mph /  2.1km/h 11mph /  17.7km/h 82% 0.01in /  0.25mm 0 W/m2
17:34 33.7 °F /  0.9 °C 28.8 °F /  -1.8 °C 30.04in /  1017.2hPa NW 2.3mph /  3.7km/h 11mph /  17.7km/h 82% 0.01in /  0.25mm 0 W/m2
17:39 33.7 °F /  0.9 °C 28.8 °F /  -1.8 °C 30.04in /  1017.2hPa NNW 1.8mph /  2.9km/h 7mph /  11.3km/h 82% 0.01in /  0.25mm 0 W/m2
17:44 33.6 °F /  0.9 °C 28.7 °F /  -1.8 °C 30.04in /  1017.2hPa NNW 1mph /  1.6km/h 7mph /  11.3km/h 82% 0.01in /  0.25mm 0 W/m2
17:49 33.5 °F /  0.8 °C 28.6 °F /  -1.9 °C 30.04in /  1017.2hPa NNW 1.1mph /  1.8km/h 7mph /  11.3km/h 82% 0.01in /  0.25mm 0 W/m2
17:54 33.5 °F /  0.8 °C 28.6 °F /  -1.9 °C 30.04in /  1017.2hPa NNW 0.9mph /  1.4km/h 7mph /  11.3km/h 82.1% 0.01in /  0.25mm 0 W/m2
17:59 33.4 °F /  0.8 °C 28.8 °F /  -1.8 °C 30.05in /  1017.5hPa NNW 0.5mph /  0.8km/h 7mph /  11.3km/h 83% 0.01in /  0.25mm 0 W/m2
18:04 33.4 °F /  0.8 °C 28.8 °F /  -1.8 °C 30.05in /  1017.5hPa NNW 1mph /  1.6km/h 7mph /  11.3km/h 83% 0.01in /  0.25mm 0 W/m2
18:09 33.4 °F /  0.8 °C 28.8 °F /  -1.8 °C 30.05in /  1017.5hPa NW 0.9mph /  1.4km/h 6mph /  9.7km/h 83% 0.00in /  0mm 0 W/m2
18:14 33.3 °F /  0.7 °C 28.7 °F /  -1.8 °C 30.05in /  1017.5hPa WNW 1.2mph /  1.9km/h 6mph /  9.7km/h 83% 0.00in /  0mm 0 W/m2
18:19 33.3 °F /  0.7 °C 28.7 °F /  -1.8 °C 30.06in /  1017.8hPa WNW 2.8mph /  4.5km/h 6mph /  9.7km/h 83% 0.00in /  0mm 0 W/m2
18:24 33.2 °F /  0.7 °C 28.6 °F /  -1.9 °C 30.06in /  1017.8hPa NW 2mph /  3.2km/h 6mph /  9.7km/h 83% 0.00in /  0mm 0 W/m2
18:29 33.2 °F /  0.7 °C 28.6 °F /  -1.9 °C 30.06in /  1017.8hPa NW 1.5mph /  2.4km/h 10mph /  16.1km/h 83% 0.00in /  0mm 0 W/m2
18:34 33.1 °F /  0.6 °C 28.5 °F /  -1.9 °C 30.06in /  1017.8hPa NW 1.2mph /  1.9km/h 10mph /  16.1km/h 83% 0.00in /  0mm 0 W/m2
18:39 33 °F /  0.6 °C 28.4 °F /  -2 °C 30.06in /  1017.8hPa NW 3.3mph /  5.3km/h 12mph /  19.3km/h 83% 0.00in /  0mm 0 W/m2
18:44 32.9 °F /  0.5 °C 28.1 °F /  -2.2 °C 30.06in /  1017.8hPa NW 3mph /  4.8km/h 12mph /  19.3km/h 82.2% 0.00in /  0mm 0 W/m2
18:49 32.8 °F /  0.4 °C 27.9 °F /  -2.3 °C 30.06in /  1017.8hPa NW 1.3mph /  2.1km/h 12mph /  19.3km/h 82% 0.00in /  0mm 0 W/m2
18:54 32.7 °F /  0.4 °C 27.9 °F /  -2.3 °C 30.06in /  1017.8hPa NW 3.6mph /  5.8km/h 12mph /  19.3km/h 82% 0.00in /  0mm 0 W/m2
18:59 32.6 °F /  0.3 °C 27.8 °F /  -2.3 °C 30.06in /  1017.8hPa NW 1.3mph /  2.1km/h 12mph /  19.3km/h 82.1% 0.00in /  0mm 0 W/m2
19:04 32.6 °F /  0.3 °C 28 °F /  -2.2 °C 30.06in /  1017.8hPa NW 1.1mph /  1.8km/h 12mph /  19.3km/h 83% 0.00in /  0mm 0 W/m2
19:09 32.6 °F /  0.3 °C 28 °F /  -2.2 °C 30.06in /  1017.8hPa NNW 2.8mph /  4.5km/h 9mph /  14.5km/h 83% 0.00in /  0mm 0 W/m2
19:14 32.5 °F /  0.3 °C 27.6 °F /  -2.4 °C 30.06in /  1017.8hPa NNW 3.3mph /  5.3km/h 11mph /  17.7km/h 82% 0.00in /  0mm 0 W/m2
19:19 32.4 °F /  0.2 °C 27.5 °F /  -2.5 °C 30.06in /  1017.8hPa NW 2mph /  3.2km/h 11mph /  17.7km/h 82% 0.00in /  0mm 0 W/m2
19:24 32.3 °F /  0.2 °C 27.4 °F /  -2.6 °C 30.06in /  1017.8hPa NW 2.2mph /  3.5km/h 11mph /  17.7km/h 82% 0.00in /  0mm 0 W/m2
19:29 32.2 °F /  0.1 °C 27.4 °F /  -2.6 °C 30.06in /  1017.8hPa NW 1.4mph /  2.3km/h 11mph /  17.7km/h 82% 0.00in /  0mm 0 W/m2
19:34 32.1 °F /  0.1 °C 27.3 °F /  -2.6 °C 30.06in /  1017.8hPa NW 0.1mph /  0.2km/h 11mph /  17.7km/h 82% 0.00in /  0mm 0 W/m2
19:39 32.1 °F /  0.1 °C 27.2 °F /  -2.7 °C 30.06in /  1017.8hPa NNW 1.8mph /  2.9km/h 5mph /  8km/h 82% 0.00in /  0mm 0 W/m2
19:44 32.1 °F /  0.1 °C 27.2 °F /  -2.7 °C 30.06in /  1017.8hPa NNW 1.3mph /  2.1km/h 5mph /  8km/h 82% 0.00in /  0mm 0 W/m2
19:49 32 °F /  0 °C 27.2 °F /  -2.7 °C 30.07in /  1018.2hPa NW 1.4mph /  2.3km/h 9mph /  14.5km/h 82% 0.00in /  0mm 0 W/m2
19:54 32 °F /  0 °C 27.1 °F /  -2.7 °C 30.07in /  1018.2hPa Calm   9mph /  14.5km/h 82% 0.00in /  0mm 0 W/m2
19:59 32 °F /  0 °C 27.1 °F /  -2.7 °C 30.07in /  1018.2hPa NW 0.7mph /  1.1km/h 9mph /  14.5km/h 82% 0.00in /  0mm 0 W/m2
20:00 32 °F /  0 °C 27.1 °F /  -2.7 °C 30.07in /  1018.2hPa Calm   9mph /  14.5km/h 82% 0.00in /  0mm 0 W/m2
20:09 31.9 °F /  -0.1 °C 27.3 °F /  -2.6 °C 30.07in /  1018.2hPa NNW 1.7mph /  2.7km/h 9mph /  14.5km/h 82.9% 0.00in /  0mm 0 W/m2
20:14 31.9 °F /  -0.1 °C 27 °F /  -2.8 °C 30.07in /  1018.2hPa NNW 3mph /  4.8km/h 9mph /  14.5km/h 82% 0.00in /  0mm 0 W/m2
20:19 31.9 °F /  -0.1 °C 27 °F /  -2.8 °C 30.07in /  1018.2hPa NNW 1.2mph /  1.9km/h 9mph /  14.5km/h 82% 0.00in /  0mm 0 W/m2
20:24 31.9 °F /  -0.1 °C 27 °F /  -2.8 °C 30.07in /  1018.2hPa NW 1.2mph /  1.9km/h 9mph /  14.5km/h 82% 0.00in /  0mm 0 W/m2
20:29 31.9 °F /  -0.1 °C 27 °F /  -2.8 °C 30.07in /  1018.2hPa NW 2.2mph /  3.5km/h 9mph /  14.5km/h 82% 0.00in /  0mm 0 W/m2
20:34 31.9 °F /  -0.1 °C 27 °F /  -2.8 °C 30.07in /  1018.2hPa NW 0.3mph /  0.5km/h 9mph /  14.5km/h 82% 0.00in /  0mm 0 W/m2
20:39 31.9 °F /  -0.1 °C 27 °F /  -2.8 °C 30.08in /  1018.5hPa NW 0.8mph /  1.3km/h 4mph /  6.4km/h 82% 0.00in /  0mm 0 W/m2
20:44 31.9 °F /  -0.1 °C 27 °F /  -2.8 °C 30.08in /  1018.5hPa NNW 1.5mph /  2.4km/h 6mph /  9.7km/h 82% 0.00in /  0mm 0 W/m2
20:49 31.8 °F /  -0.1 °C 27 °F /  -2.8 °C 30.07in /  1018.2hPa NNW 2.1mph /  3.4km/h 10mph /  16.1km/h 82% 0.00in /  0mm 0 W/m2
20:54 31.8 °F /  -0.1 °C 26.9 °F /  -2.8 °C 30.07in /  1018.2hPa Calm   10mph /  16.1km/h 82% 0.00in /  0mm 0 W/m2
20:59 31.8 °F /  -0.1 °C 26.9 °F /  -2.8 °C 30.07in /  1018.2hPa North 0.8mph /  1.3km/h 10mph /  16.1km/h 82% 0.00in /  0mm 0 W/m2
21:04 31.8 °F /  -0.1 °C 26.9 °F /  -2.8 °C 30.07in /  1018.2hPa NNW 1.1mph /  1.8km/h 10mph /  16.1km/h 82% 0.00in /  0mm 0 W/m2
21:09 31.8 °F /  -0.1 °C 26.9 °F /  -2.8 °C 30.07in /  1018.2hPa NNW 2.7mph /  4.3km/h 7mph /  11.3km/h 82% 0.00in /  0mm 0 W/m2
21:14 31.7 °F /  -0.2 °C 26.9 °F /  -2.8 °C 30.07in /  1018.2hPa NNW 2.3mph /  3.7km/h 8mph /  12.9km/h 82% 0.00in /  0mm 0 W/m2
21:19 31.7 °F /  -0.2 °C 26.8 °F /  -2.9 °C 30.06in /  1017.8hPa NW 2.2mph /  3.5km/h 8mph /  12.9km/h 82% 0.00in /  0mm 0 W/m2
21:24 31.7 °F /  -0.2 °C 26.8 °F /  -2.9 °C 30.06in /  1017.8hPa NW 0.7mph /  1.1km/h 8mph /  12.9km/h 82% 0.00in /  0mm 0 W/m2
21:29 31.7 °F /  -0.2 °C 26.8 °F /  -2.9 °C 30.06in /  1017.8hPa NNW 0.6mph /  1km/h 8mph /  12.9km/h 82% 0.00in /  0mm 0 W/m2
21:34 31.6 °F /  -0.2 °C 26.8 °F /  -2.9 °C 30.07in /  1018.2hPa NW 2.2mph /  3.5km/h 8mph /  12.9km/h 82% 0.00in /  0mm 0 W/m2
21:39 31.6 °F /  -0.2 °C 26.8 °F /  -2.9 °C 30.07in /  1018.2hPa NW 2.5mph /  4km/h 8mph /  12.9km/h 82% 0.00in /  0mm 0 W/m2
21:44 31.5 °F /  -0.3 °C 26.7 °F /  -2.9 °C 30.06in /  1017.8hPa NNW 1.3mph /  2.1km/h 8mph /  12.9km/h 82% 0.00in /  0mm 0 W/m2
21:49 31.5 °F /  -0.3 °C 26.7 °F /  -2.9 °C 30.06in /  1017.8hPa NNW 1.4mph /  2.3km/h 8mph /  12.9km/h 82% 0.00in /  0mm 0 W/m2
21:54 31.5 °F /  -0.3 °C 26.7 °F /  -2.9 °C 30.06in /  1017.8hPa NNW 1.2mph /  1.9km/h 8mph /  12.9km/h 82% 0.00in /  0mm 0 W/m2
21:59 31.4 °F /  -0.3 °C 26.6 °F /  -3 °C 30.06in /  1017.8hPa North 0.9mph /  1.4km/h 8mph /  12.9km/h 82% 0.00in /  0mm 0 W/m2
22:04 31.4 °F /  -0.3 °C 26.6 °F /  -3 °C 30.06in /  1017.8hPa NNW 2mph /  3.2km/h 8mph /  12.9km/h 82% 0.00in /  0mm 0 W/m2
22:09 31.4 °F /  -0.3 °C 26.5 °F /  -3.1 °C 30.06in /  1017.8hPa NW 2.6mph /  4.2km/h 9mph /  14.5km/h 82% 0.00in /  0mm 0 W/m2
22:14 31.3 °F /  -0.4 °C 26.5 °F /  -3.1 °C 30.06in /  1017.8hPa NW 1.4mph /  2.3km/h 10mph /  16.1km/h 82% 0.00in /  0mm 0 W/m2
22:19 31.3 °F /  -0.4 °C 26.5 °F /  -3.1 °C 30.06in /  1017.8hPa NW 0.7mph /  1.1km/h 10mph /  16.1km/h 82% 0.00in /  0mm 0 W/m2
22:24 31.3 °F /  -0.4 °C 26.4 °F /  -3.1 °C 30.06in /  1017.8hPa NW 0.5mph /  0.8km/h 10mph /  16.1km/h 82% 0.00in /  0mm 0 W/m2
22:29 31.2 °F /  -0.4 °C 26.4 °F /  -3.1 °C 30.06in /  1017.8hPa Calm   10mph /  16.1km/h 82% 0.00in /  0mm 0 W/m2
22:34 31.2 °F /  -0.4 °C 26.4 °F /  -3.1 °C 30.06in /  1017.8hPa NW 0.6mph /  1km/h 10mph /  16.1km/h 82% 0.00in /  0mm 0 W/m2
22:39 31.2 °F /  -0.4 °C 26.4 °F /  -3.1 °C 30.05in /  1017.5hPa Calm   4mph /  6.4km/h 82% 0.00in /  0mm 0 W/m2
22:44 31.2 °F /  -0.4 °C 26.4 °F /  -3.1 °C 30.05in /  1017.5hPa Calm   4mph /  6.4km/h 82% 0.00in /  0mm 0 W/m2
22:49 31.2 °F /  -0.4 °C 26.3 °F /  -3.2 °C 30.05in /  1017.5hPa NW 0.7mph /  1.1km/h 7mph /  11.3km/h 82% 0.00in /  0mm 0 W/m2
22:54 31.1 °F /  -0.5 °C 26.3 °F /  -3.2 °C 30.05in /  1017.5hPa NW 0.9mph /  1.4km/h 7mph /  11.3km/h 82% 0.00in /  0mm 0 W/m2
22:59 31.1 °F /  -0.5 °C 26.3 °F /  -3.2 °C 30.06in /  1017.8hPa NW 0.3mph /  0.5km/h 7mph /  11.3km/h 82% 0.00in /  0mm 0 W/m2
23:00 31.1 °F /  -0.5 °C 26.3 °F /  -3.2 °C 30.05in /  1017.5hPa Calm   7mph /  11.3km/h 82% 0.00in /  0mm 0 W/m2
23:09 31.1 °F /  -0.5 °C 26.3 °F /  -3.2 °C 30.05in /  1017.5hPa Calm     82% 0.00in /  0mm 0 W/m2
23:14 31.1 °F /  -0.5 °C 26.2 °F /  -3.2 °C 30.05in /  1017.5hPa Calm     82% 0.00in /  0mm 0 W/m2
23:19 31 °F /  -0.6 °C 26.2 °F /  -3.2 °C 30.05in /  1017.5hPa NW 0.8mph /  1.3km/h 5mph /  8km/h 82% 0.00in /  0mm 0 W/m2
23:24 31 °F /  -0.6 °C 26.2 °F /  -3.2 °C 30.05in /  1017.5hPa NNW 2.2mph /  3.5km/h 6mph /  9.7km/h 82% 0.00in /  0mm 0 W/m2
23:29 31 °F /  -0.6 °C 26.2 °F /  -3.2 °C 30.05in /  1017.5hPa NW 2.8mph /  4.5km/h 7mph /  11.3km/h 82% 0.00in /  0mm 0 W/m2
23:34 31 °F /  -0.6 °C 26.1 °F /  -3.3 °C 30.05in /  1017.5hPa NW 1.8mph /  2.9km/h 7mph /  11.3km/h 82% 0.00in /  0mm 0 W/m2
23:39 30.9 °F /  -0.6 °C 26.1 °F /  -3.3 °C 30.05in /  1017.5hPa NW 1.5mph /  2.4km/h 10mph /  16.1km/h 82% 0.00in /  0mm 0 W/m2
23:44 30.9 °F /  -0.6 °C 26 °F /  -3.3 °C 30.05in /  1017.5hPa NW 1.4mph /  2.3km/h 10mph /  16.1km/h 82% 0.00in /  0mm 0 W/m2
23:49 30.8 °F /  -0.7 °C 26 °F /  -3.3 °C 30.05in /  1017.5hPa NW 1.2mph /  1.9km/h 10mph /  16.1km/h 82% 0.00in /  0mm 0 W/m2
23:54 30.8 °F /  -0.7 °C 26 °F /  -3.3 °C 30.05in /  1017.5hPa NNW 1.8mph /  2.9km/h 10mph /  16.1km/h 82% 0.00in /  0mm 0 W/m2
23:59 30.8 °F /  -0.7 °C 26 °F /  -3.3 °C 30.05in /  1017.5hPa NNW 1.7mph /  2.7km/h 10mph /  16.1km/h 82% 0.00in /  0mm 0 W/m2
Hartford County Weather
Compliments of Weather Underground - 4 mb